Heckmondwike, United Kingdom
Current Conditions -  °F | °C
As of 3:50 AM on Thursday 18 Dec 2014 (Local Time) from EGNM Reporting Station
Light Rain Light Rain  
Wind Chill: 50°   Ceiling: 800
Heat Index: 50°   Visibility: 6mi
Dew Point: 50°   Wind: 15mph
Humidity: 100%   Direction: 250°WSW
Pressure: 29.59"   Gusts: NA
Location:  53.71°N, 1.68°W
Report Text: EGNM 180350Z 25013KT 220V290 9000 -RADZ SCT006 BKN008 10/10 Q1002
Loading
Personal Weather Stations






























Interactive Weather Map New forecast layout! Learn more

10-Day Weather Forecast

Advertisements
Track Severe Weather on mobile